Time;durP1;ratioP1;P1;durP2;ratioP2;P2;SDS_P1;SDS_P2;PMS_P1;PMS_P2;Temp;Humidity;BMP_temperature;BMP_pressure;BME280_temperature;BME280_humidity;BME280_pressure;Samples;Min_cycle;Max_cycle;Signal;HPM_P1;HPM_P2
2023/12/02 12:19:38;;;;;;;36.57;17.60;;;3.60;86.80;;;;;;1484588;26;20497;-82
2023/12/02 12:22:05;;;;;;;40.63;19.17;;;3.50;87.10;;;;;;5097957;28;20020;-82
2023/12/02 12:24:31;;;;;;;39.50;19.80;;;3.50;87.40;;;;;;5098188;28;20072;-82
2023/12/02 12:26:56;;;;;;;38.23;19.00;;;3.50;87.50;;;;;;5095522;22;20056;-83
2023/12/02 12:29:22;;;;;;;35.33;17.27;;;3.40;88.00;;;;;;5038056;28;20017;-83
2023/12/02 12:31:48;;;;;;;40.87;19.93;;;3.40;88.10;;;;;;5056408;28;20025;-83
2023/12/02 12:34:14;;;;;;;37.93;20.00;;;3.30;88.70;;;;;;5055648;28;20025;-82
2023/12/02 12:36:41;;;;;;;37.13;19.07;;;3.30;88.80;;;;;;5037648;28;20025;-82
2023/12/02 12:39:07;;;;;;;39.53;20.00;;;3.30;89.10;;;;;;5056011;28;20057;-82
2023/12/02 12:41:36;;;;;;;44.50;22.00;;;3.30;89.40;;;;;;5055252;28;20013;-82
2023/12/02 12:44:04;;;;;;;39.27;20.07;;;3.20;89.60;;;;;;5055811;28;20017;-81
2023/12/02 12:46:30;;;;;;;42.13;20.93;;;3.20;90.00;;;;;;5037431;28;20105;-82
2023/12/02 12:48:56;;;;;;;38.50;18.80;;;3.20;89.80;;;;;;5057585;28;20035;-83
2023/12/02 12:51:23;;;;;;;40.53;20.77;;;3.20;89.90;;;;;;5057398;28;20104;-81
2023/12/02 12:54:02;;;;;;;39.43;20.83;;;3.10;90.10;;;;;;5056841;28;20025;-82
2023/12/02 12:56:40;;;;;;;43.30;22.10;;;3.10;90.20;;;;;;5045997;28;20025;-82
2023/12/02 12:59:13;;;;;;;45.87;22.07;;;3.00;90.20;;;;;;5053921;28;20032;-82
2023/12/02 13:01:57;;;;;;;41.60;20.00;;;2.90;90.40;;;;;;5055322;28;20082;-83
2023/12/02 13:04:28;;;;;;;40.72;19.15;;;2.90;90.40;;;;;;5036291;28;20071;-82
2023/12/02 13:07:15;;;;;;;41.80;20.03;;;2.90;90.60;;;;;;5037176;28;20027;-82
2023/12/02 13:09:50;;;;;;;37.57;18.83;;;2.90;90.50;;;;;;5035810;28;20033;-82
2023/12/02 13:12:25;;;;;;;41.70;19.53;;;2.80;90.50;;;;;;5036378;28;20026;-83
2023/12/02 13:14:53;;;;;;;39.30;20.13;;;2.80;90.60;;;;;;5035628;28;20059;-83
2023/12/02 13:17:19;;;;;;;40.07;20.33;;;2.80;90.70;;;;;;5036698;28;20021;-83
2023/12/02 13:19:47;;;;;;;46.30;20.33;;;2.80;90.70;;;;;;5017121;28;20059;-83
2023/12/02 13:22:14;;;;;;;41.60;20.87;;;2.80;90.90;;;;;;5017242;28;20028;-83
2023/12/02 13:25:07;;;;;;;40.97;20.57;;;2.80;90.80;;;;;;5017465;28;20034;-82
2023/12/02 13:27:37;;;;;;;49.83;22.30;;;2.80;90.90;;;;;;5030216;28;20141;-82
2023/12/02 13:30:05;;;;;;;44.80;19.77;;;2.80;91.00;;;;;;5014161;28;20014;-80
2023/12/02 13:32:44;;;;;;;42.63;20.47;;;2.80;91.00;;;;;;5015237;28;20022;-79
2023/12/02 13:35:14;;;;;;;43.20;21.00;;;2.80;91.10;;;;;;5013934;28;20025;-79
2023/12/02 13:38:07;;;;;;;40.40;20.23;;;2.80;91.10;;;;;;5015128;28;20018;-79
2023/12/02 13:41:08;;;;;;;44.27;19.13;;;2.80;91.10;;;;;;5015008;28;20028;-79
2023/12/02 13:43:52;;;;;;;42.10;20.30;;;2.80;91.20;;;;;;5030364;28;20076;-80
2023/12/02 13:46:32;;;;;;;45.42;21.08;;;2.80;91.20;;;;;;5015105;28;20022;-79
2023/12/02 13:49:07;;;;;;;42.50;20.77;;;2.80;91.60;;;;;;5014513;28;20029;-79
2023/12/02 13:51:49;;;;;;;44.37;20.73;;;2.80;91.30;;;;;;5030202;28;20038;-80
2023/12/02 13:54:35;;;;;;;46.70;21.97;;;2.80;91.40;;;;;;5013774;28;20037;-79
2023/12/02 13:57:29;;;;;;;43.23;21.07;;;2.80;91.40;;;;;;5014740;28;20030;-79
2023/12/02 14:00:06;;;;;;;38.85;18.65;;;2.80;91.50;;;;;;5015278;28;20025;-80
2023/12/02 14:02:38;;;;;;;41.83;19.90;;;2.80;91.50;;;;;;5030005;28;20159;-80
2023/12/02 14:05:15;;;;;;;43.50;21.37;;;2.80;91.50;;;;;;5014386;28;20492;-80
2023/12/02 14:07:45;;;;;;;42.13;19.80;;;2.90;91.60;;;;;;5014580;28;20026;-79
2023/12/02 14:10:13;;;;;;;39.90;19.97;;;2.90;91.70;;;;;;5014642;28;20080;-80
2023/12/02 14:12:57;;;;;;;43.70;20.53;;;2.90;91.70;;;;;;5014461;28;20076;-83
2023/12/02 14:15:23;;;;;;;32.05;15.85;;;2.90;91.80;;;;;;5014348;28;20033;-82
2023/12/02 14:18:17;;;;;;;40.83;19.53;;;2.90;91.80;;;;;;5014758;28;20022;-83
2023/12/02 14:21:00;;;;;;;37.33;18.83;;;2.90;92.20;;;;;;5029685;28;20018;-82
2023/12/02 14:23:31;;;;;;;37.97;18.83;;;2.90;91.90;;;;;;5014805;28;20409;-82
2023/12/02 14:26:22;;;;;;;41.60;18.73;;;2.90;92.00;;;;;;5029486;28;20389;-83
2023/12/02 14:29:00;;;;;;;40.00;19.17;;;3.00;92.00;;;;;;4996514;28;20046;-83
2023/12/02 14:31:43;;;;;;;39.40;18.80;;;3.00;92.10;;;;;;5014500;28;20104;-82
2023/12/02 14:34:30;;;;;;;39.67;19.10;;;3.00;92.10;;;;;;5013683;28;20018;-82
2023/12/02 14:37:18;;;;;;;39.57;17.97;;;3.10;92.10;;;;;;5012817;28;20109;-83
2023/12/02 14:39:56;;;;;;;38.67;18.80;;;3.10;92.10;;;;;;5012894;28;20056;-83
2023/12/02 14:42:43;;;;;;;38.40;18.57;;;3.00;92.10;;;;;;5029127;28;20034;-82
2023/12/02 14:45:10;;;;;;;37.33;18.10;;;3.00;92.10;;;;;;5002799;28;20022;-83
2023/12/02 14:47:39;;;;;;;36.53;17.83;;;3.00;92.20;;;;;;5031673;28;20029;-82
2023/12/02 14:50:05;;;;;;;39.67;18.90;;;3.00;92.20;;;;;;5015472;28;20032;-82
2023/12/02 14:52:31;;;;;;;42.77;19.37;;;3.00;92.30;;;;;;5015710;28;20026;-82
2023/12/02 14:54:58;;;;;;;43.67;20.77;;;2.90;92.30;;;;;;5033107;28;20460;-83
2023/12/02 14:57:29;;;;;;;41.10;20.07;;;2.80;92.30;;;;;;5015153;28;20014;-82
2023/12/02 14:59:58;;;;;;;40.03;19.53;;;2.90;92.30;;;;;;5015238;28;20018;-82
2023/12/02 15:02:41;;;;;;;35.77;17.53;;;3.00;92.40;;;;;;5032800;28;20155;-82
2023/12/02 15:05:12;;;;;;;41.93;19.00;;;2.90;92.30;;;;;;5049375;28;20075;-84
2023/12/02 15:07:43;;;;;;;37.33;18.13;;;2.90;92.30;;;;;;5032956;28;20021;-83
2023/12/02 15:10:14;;;;;;;39.47;19.57;;;2.90;92.40;;;;;;5032936;28;20025;-83
2023/12/02 15:12:43;;;;;;;42.60;18.90;;;2.80;92.40;;;;;;5014922;28;20116;-84
2023/12/02 15:15:41;;;;;;;40.17;19.10;;;2.80;92.50;;;;;;5031471;28;20040;-84
2023/12/02 15:18:11;;;;;;;36.33;17.40;;;2.80;92.50;;;;;;5020822;28;20041;-84
2023/12/02 15:20:37;;;;;;;37.67;16.50;;;2.80;92.50;;;;;;5014982;28;20017;-83
2023/12/02 15:23:29;;;;;;;42.30;19.20;;;2.80;92.50;;;;;;5033451;28;20032;-83
2023/12/02 15:25:57;;;;;;;39.47;17.57;;;2.80;92.60;;;;;;5027406;28;20033;-84
2023/12/02 15:28:26;;;;;;;37.07;18.73;;;2.80;92.60;;;;;;5049336;28;20040;-83
2023/12/02 15:31:13;;;;;;;40.80;19.33;;;2.70;92.60;;;;;;5052765;28;20075;-85
2023/12/02 15:33:55;;;;;;;36.23;16.40;;;2.80;92.70;;;;;;5035579;28;20128;-83
2023/12/02 15:36:22;;;;;;;39.43;18.97;;;2.80;92.80;;;;;;5048949;28;20029;-83
2023/12/02 15:38:51;;;;;;;40.77;19.37;;;2.80;92.80;;;;;;5052203;28;20020;-83
2023/12/02 15:41:17;;;;;;;37.87;17.97;;;2.80;92.80;;;;;;5052098;28;20035;-82
2023/12/02 15:43:43;;;;;;;42.17;19.10;;;2.80;92.80;;;;;;5052213;28;20039;-83
2023/12/02 15:46:09;;;;;;;41.20;18.73;;;2.80;92.90;;;;;;5052444;28;20021;-85
2023/12/02 15:48:38;;;;;;;39.37;19.07;;;2.80;92.90;;;;;;5052534;28;20028;-85
2023/12/02 15:51:04;;;;;;;40.27;18.83;;;2.80;92.90;;;;;;5021944;28;20021;-84
2023/12/02 15:53:31;;;;;;;44.27;18.93;;;2.80;92.90;;;;;;5052655;28;20028;-84
2023/12/02 15:55:58;;;;;;;37.13;17.40;;;2.70;92.80;;;;;;5052756;28;20029;-84
2023/12/02 15:58:24;;;;;;;40.03;18.97;;;2.70;92.90;;;;;;5034962;28;20041;-84
2023/12/02 16:00:50;;;;;;;43.50;20.10;;;2.70;92.90;;;;;;5034559;28;20052;-85
2023/12/02 16:03:16;;;;;;;44.50;21.10;;;2.70;93.00;;;;;;5051715;28;20013;-85
2023/12/02 16:05:47;;;;;;;36.63;18.60;;;2.60;93.00;;;;;;5052329;28;20032;-84
2023/12/02 16:08:17;;;;;;;38.40;17.83;;;2.60;93.00;;;;;;5034513;28;20024;-84
2023/12/02 16:10:43;;;;;;;41.33;18.90;;;2.50;92.90;;;;;;5034198;28;20056;-84
2023/12/02 16:13:09;;;;;;;39.20;19.20;;;2.50;93.00;;;;;;5051220;28;20060;-84
2023/12/02 16:15:38;;;;;;;37.57;17.33;;;2.50;93.00;;;;;;5052071;28;20018;-84
2023/12/02 16:18:04;;;;;;;41.80;19.37;;;2.50;93.00;;;;;;5052430;28;20035;-85
2023/12/02 16:20:33;;;;;;;41.30;19.13;;;2.40;93.00;;;;;;5052562;28;20013;-85
2023/12/02 16:22:59;;;;;;;40.33;19.87;;;2.40;93.10;;;;;;5034374;28;20024;-84
2023/12/02 16:25:24;;;;;;;42.70;21.03;;;2.30;93.20;;;;;;5037503;28;20013;-84
2023/12/02 16:27:50;;;;;;;41.67;20.03;;;2.40;93.20;;;;;;5051905;28;20045;-85
2023/12/02 16:30:19;;;;;;;38.23;18.93;;;2.30;93.30;;;;;;5051663;28;20017;-85
2023/12/02 16:32:45;;;;;;;38.63;19.27;;;2.30;93.30;;;;;;5034517;28;20019;-84
2023/12/02 16:35:12;;;;;;;44.50;19.90;;;2.30;93.30;;;;;;5050689;28;20033;-85
2023/12/02 16:37:39;;;;;;;41.13;20.03;;;2.30;93.40;;;;;;5052317;28;20110;-83
2023/12/02 16:40:06;;;;;;;44.73;20.83;;;2.20;93.40;;;;;;5055398;28;20074;-83
2023/12/02 16:42:32;;;;;;;44.97;20.40;;;2.20;93.40;;;;;;5036761;28;20037;-83
2023/12/02 16:45:01;;;;;;;41.17;18.03;;;2.20;93.40;;;;;;5053787;28;20106;-83
2023/12/02 16:47:48;;;;;;;42.47;20.40;;;2.20;93.40;;;;;;5054123;28;20021;-83
2023/12/02 16:50:31;;;;;;;40.37;19.73;;;2.20;93.40;;;;;;5037432;28;20384;-83
2023/12/02 16:53:00;;;;;;;42.57;19.67;;;2.20;93.50;;;;;;5053485;28;20013;-84
2023/12/02 16:55:31;;;;;;;40.17;19.33;;;2.10;93.40;;;;;;5053311;28;20397;-83
2023/12/02 16:57:57;;;;;;;43.07;19.13;;;2.10;93.50;;;;;;5055101;28;20032;-83
2023/12/02 17:00:30;;;;;;;43.73;20.40;;;2.10;93.50;;;;;;5037549;28;20017;-83
2023/12/02 17:02:56;;;;;;;32.08;14.50;;;2.10;93.50;;;;;;5021444;28;20040;-84
2023/12/02 17:05:31;;;;;;;43.40;19.60;;;2.10;93.60;;;;;;5064316;28;20416;-83
2023/12/02 17:08:03;;;;;;;42.27;19.73;;;2.10;93.60;;;;;;5055165;28;20074;-83
2023/12/02 17:10:38;;;;;;;47.07;20.90;;;2.10;93.70;;;;;;5054667;28;20063;-83
2023/12/02 17:13:03;;;;;;;42.30;20.43;;;2.10;93.70;;;;;;5053369;28;20029;-84
2023/12/02 17:15:29;;;;;;;42.07;19.10;;;2.10;93.80;;;;;;5036811;28;20071;-83
2023/12/02 17:18:11;;;;;;;39.47;19.17;;;2.10;93.80;;;;;;5055015;28;20021;-83
2023/12/02 17:20:37;;;;;;;40.37;19.83;;;2.20;93.90;;;;;;5036538;28;20017;-83
2023/12/02 17:23:03;;;;;;;40.83;19.43;;;2.20;93.90;;;;;;5055170;28;20032;-83
2023/12/02 17:25:57;;;;;;;38.20;18.17;;;2.20;93.90;;;;;;5036521;28;20039;-83
2023/12/02 17:28:23;;;;;;;41.97;18.30;;;2.20;93.90;;;;;;5054260;28;20462;-83
2023/12/02 17:30:49;;;;;;;43.23;20.63;;;2.20;94.00;;;;;;5054891;28;20047;-83
2023/12/02 17:33:15;;;;;;;41.03;19.57;;;2.20;94.00;;;;;;5036669;28;20021;-83
2023/12/02 17:35:40;;;;;;;41.77;20.63;;;2.20;94.00;;;;;;5036541;28;20017;-83
2023/12/02 17:38:06;;;;;;;40.63;20.20;;;2.20;94.10;;;;;;5054271;28;20017;-83
2023/12/02 17:40:32;;;;;;;44.73;22.10;;;2.20;94.10;;;;;;5053919;28;20063;-83
2023/12/02 17:42:57;;;;;;;42.50;21.63;;;2.30;94.20;;;;;;5036036;28;20516;-83
2023/12/02 17:45:23;;;;;;;43.87;19.60;;;2.30;94.10;;;;;;5030044;28;20166;-83
2023/12/02 17:47:49;;;;;;;38.43;18.93;;;2.30;94.10;;;;;;5036139;28;20162;-83
2023/12/02 17:50:15;;;;;;;40.40;18.07;;;2.30;94.10;;;;;;5035890;28;20112;-83
2023/12/02 17:52:42;;;;;;;44.97;20.50;;;2.30;94.20;;;;;;5054000;28;20020;-82
2023/12/02 17:55:08;;;;;;;38.47;19.63;;;2.30;94.30;;;;;;5053606;28;20025;-83
2023/12/02 17:57:34;;;;;;;44.17;21.63;;;2.30;94.30;;;;;;5053713;28;20373;-82
2023/12/02 18:00:00;;;;;;;39.07;20.07;;;2.30;94.30;;;;;;5036208;28;20389;-82
2023/12/02 18:02:25;;;;;;;39.43;19.83;;;2.30;94.30;;;;;;5054017;28;20013;-82
2023/12/02 18:04:51;;;;;;;43.47;20.47;;;2.30;94.40;;;;;;5036349;28;20112;-83
2023/12/02 18:07:16;;;;;;;45.07;21.80;;;2.40;94.40;;;;;;5035979;28;20025;-82
2023/12/02 18:09:43;;;;;;;44.20;21.67;;;2.40;94.50;;;;;;5035593;28;20021;-82
2023/12/02 18:12:09;;;;;;;43.23;22.57;;;2.40;94.50;;;;;;5035877;28;20079;-83
2023/12/02 18:14:35;;;;;;;48.03;23.10;;;2.40;94.50;;;;;;5035485;28;20017;-83
2023/12/02 18:17:01;;;;;;;46.73;21.60;;;2.40;94.60;;;;;;5035693;28;20045;-82
2023/12/02 18:19:26;;;;;;;45.17;21.50;;;2.50;94.60;;;;;;5035754;28;20020;-83
2023/12/02 18:21:52;;;;;;;45.23;22.23;;;2.40;94.60;;;;;;5053792;28;20056;-83
2023/12/02 18:24:17;;;;;;;41.73;20.33;;;2.40;94.60;;;;;;5035393;28;20108;-83
2023/12/02 18:26:43;;;;;;;46.37;22.10;;;2.30;94.60;;;;;;5053087;28;20049;-82
2023/12/02 18:29:09;;;;;;;49.07;22.90;;;2.30;94.60;;;;;;5035704;28;20531;-82
2023/12/02 18:31:35;;;;;;;46.60;22.27;;;2.30;94.60;;;;;;5035511;28;20447;-83
2023/12/02 18:34:01;;;;;;;49.70;25.00;;;2.30;94.60;;;;;;5053343;28;20029;-83
2023/12/02 18:36:27;;;;;;;52.53;26.33;;;2.30;94.80;;;;;;5052447;28;20033;-82
2023/12/02 18:38:52;;;;;;;53.53;26.00;;;2.30;94.90;;;;;;5035550;28;20106;-83
2023/12/02 18:41:18;;;;;;;43.30;21.80;;;2.30;94.90;;;;;;5051642;28;20032;-82
2023/12/02 18:43:43;;;;;;;51.73;22.80;;;2.30;94.90;;;;;;5052910;28;20040;-83
2023/12/02 18:46:09;;;;;;;49.63;23.53;;;2.30;94.90;;;;;;5035000;28;20477;-83
2023/12/02 18:48:34;;;;;;;51.07;26.37;;;2.20;94.80;;;;;;5052960;28;20032;-83
2023/12/02 18:51:00;;;;;;;50.60;25.30;;;2.30;94.90;;;;;;5052182;28;20397;-83
2023/12/02 18:53:26;;;;;;;51.77;23.97;;;2.30;95.00;;;;;;5035273;28;20017;-83
2023/12/02 18:55:51;;;;;;;51.90;24.20;;;2.20;94.90;;;;;;5052789;28;20033;-83
2023/12/02 18:58:17;;;;;;;51.97;25.20;;;2.30;94.90;;;;;;5053175;28;20079;-83
2023/12/02 19:00:43;;;;;;;49.97;24.83;;;2.30;94.90;;;;;;5034570;28;20058;-83
2023/12/02 19:03:08;;;;;;;49.20;23.57;;;2.20;94.90;;;;;;5052358;28;20059;-83
2023/12/02 19:05:34;;;;;;;45.47;23.07;;;2.20;94.90;;;;;;5052472;28;20117;-82
2023/12/02 19:07:59;;;;;;;50.67;23.77;;;2.10;94.90;;;;;;5034862;28;20025;-83
2023/12/02 19:10:25;;;;;;;50.13;24.50;;;2.10;94.90;;;;;;5051064;28;20493;-83
2023/12/02 19:12:51;;;;;;;46.00;21.63;;;2.10;94.90;;;;;;5035089;28;20021;-83
2023/12/02 19:15:16;;;;;;;53.37;25.73;;;2.10;95.00;;;;;;5034531;28;20025;-83
2023/12/02 19:17:43;;;;;;;50.53;24.53;;;2.00;95.00;;;;;;5052920;28;20461;-83
2023/12/02 19:20:10;;;;;;;51.13;24.83;;;2.10;95.00;;;;;;5052273;28;20044;-83
2023/12/02 19:22:35;;;;;;;47.73;25.20;;;2.00;95.00;;;;;;5034340;28;20119;-83
2023/12/02 19:25:01;;;;;;;47.20;22.87;;;2.00;95.20;;;;;;5034786;28;20120;-82
2023/12/02 19:27:26;;;;;;;53.53;25.57;;;2.00;95.10;;;;;;5031459;28;20045;-83
2023/12/02 19:29:52;;;;;;;51.00;24.60;;;2.00;95.20;;;;;;5031472;28;20025;-83
2023/12/02 19:32:18;;;;;;;44.10;23.43;;;1.90;95.20;;;;;;5031144;28;20025;-83
2023/12/02 19:34:43;;;;;;;50.87;23.40;;;1.90;95.20;;;;;;5030911;28;20079;-83
2023/12/02 19:37:09;;;;;;;44.27;23.00;;;1.90;95.10;;;;;;5031029;28;20040;-83
2023/12/02 19:39:37;;;;;;;48.23;23.60;;;1.90;95.10;;;;;;5047225;28;20022;-83
2023/12/02 19:42:07;;;;;;;48.27;23.80;;;1.90;95.10;;;;;;5028121;28;20128;-83
2023/12/02 19:44:34;;;;;;;49.53;24.23;;;1.90;95.30;;;;;;5025707;28;20080;-83
2023/12/02 19:46:59;;;;;;;51.90;24.57;;;1.90;95.30;;;;;;5031776;28;20033;-82
2023/12/02 19:49:25;;;;;;;48.03;23.90;;;1.90;95.20;;;;;;5031097;28;20370;-83
2023/12/02 19:51:51;;;;;;;51.70;24.70;;;1.80;95.30;;;;;;5047640;28;20021;-82
2023/12/02 19:54:17;;;;;;;46.83;22.70;;;1.80;95.30;;;;;;5032683;28;20457;-82
2023/12/02 19:56:42;;;;;;;43.20;22.17;;;1.80;95.40;;;;;;5030075;28;20106;-82
2023/12/02 19:59:08;;;;;;;44.03;20.90;;;1.80;95.50;;;;;;5031084;28;20033;-82
2023/12/02 20:01:34;;;;;;;48.83;22.57;;;1.80;95.40;;;;;;5031209;28;20097;-82
2023/12/02 20:04:00;;;;;;;42.37;20.03;;;1.80;95.50;;;;;;5031904;28;20033;-82
2023/12/02 20:06:25;;;;;;;48.77;21.90;;;1.70;95.50;;;;;;5032158;28;20029;-83
2023/12/02 20:08:51;;;;;;;52.77;23.17;;;1.80;95.60;;;;;;5030527;28;20074;-83
2023/12/02 20:11:17;;;;;;;53.87;23.23;;;1.70;95.50;;;;;;5031344;28;20079;-83
2023/12/02 20:13:42;;;;;;;47.70;24.37;;;1.70;95.60;;;;;;5034518;28;20066;-83
2023/12/02 20:16:09;;;;;;;46.23;22.40;;;1.80;95.70;;;;;;5034881;28;20025;-80
2023/12/02 20:18:35;;;;;;;46.33;21.57;;;1.70;95.70;;;;;;5035528;28;20029;-79
2023/12/02 20:21:02;;;;;;;47.10;22.83;;;1.70;95.70;;;;;;5034548;28;20441;-79
2023/12/02 20:23:27;;;;;;;44.27;21.83;;;1.70;95.70;;;;;;5051274;28;20014;-79
2023/12/02 20:25:53;;;;;;;47.43;21.93;;;1.70;95.80;;;;;;5035944;28;20513;-79
2023/12/02 20:28:19;;;;;;;47.80;23.37;;;1.70;95.80;;;;;;5034289;28;20045;-80
2023/12/02 20:30:44;;;;;;;49.83;23.17;;;1.70;95.90;;;;;;5034435;28;20422;-79
2023/12/02 20:33:10;;;;;;;44.93;22.27;;;1.70;95.90;;;;;;5035100;28;20051;-79
2023/12/02 20:35:36;;;;;;;47.13;23.00;;;1.70;96.00;;;;;;5035563;28;20034;-79
2023/12/02 20:38:02;;;;;;;51.57;24.67;;;1.70;95.90;;;;;;5035960;28;20013;-79
2023/12/02 20:40:27;;;;;;;49.57;24.40;;;1.80;95.90;;;;;;5034387;28;20425;-79
2023/12/02 20:42:53;;;;;;;47.50;22.97;;;1.60;95.90;;;;;;5034233;28;20491;-79
2023/12/02 20:45:19;;;;;;;49.63;23.33;;;1.60;95.90;;;;;;5035435;28;20029;-79
2023/12/02 20:47:44;;;;;;;44.73;21.80;;;1.60;95.90;;;;;;5035020;28;20029;-79
2023/12/02 20:50:10;;;;;;;48.53;23.03;;;1.60;95.90;;;;;;5033944;28;20021;-80
2023/12/02 20:52:35;;;;;;;43.87;20.47;;;1.70;96.00;;;;;;5033850;28;20474;-82
2023/12/02 20:55:01;;;;;;;46.07;22.07;;;1.60;95.90;;;;;;5034219;28;20481;-82
2023/12/02 20:57:27;;;;;;;45.67;21.93;;;1.60;95.80;;;;;;5035506;28;20021;-83
2023/12/02 20:59:52;;;;;;;46.83;21.60;;;1.60;95.90;;;;;;5033942;28;20018;-82
2023/12/02 21:02:18;;;;;;;43.83;19.43;;;1.50;95.90;;;;;;5033658;28;20025;-82
2023/12/02 21:04:43;;;;;;;47.30;22.07;;;1.50;95.90;;;;;;5035325;28;20033;-83
2023/12/02 21:07:09;;;;;;;48.67;23.70;;;1.50;96.00;;;;;;5035133;28;20127;-83
2023/12/02 21:09:35;;;;;;;45.40;22.60;;;1.40;96.10;;;;;;5024672;28;20385;-83
2023/12/02 21:12:00;;;;;;;40.80;20.73;;;1.40;96.10;;;;;;5020866;28;20492;-82
2023/12/02 21:14:26;;;;;;;45.90;20.77;;;1.40;96.10;;;;;;5031016;28;20072;-83
2023/12/02 21:16:52;;;;;;;46.53;23.10;;;1.40;96.10;;;;;;5033502;28;20037;-84
2023/12/02 21:19:17;;;;;;;42.03;20.63;;;1.40;96.10;;;;;;5033375;28;20021;-84
2023/12/02 21:21:43;;;;;;;40.20;20.17;;;1.40;96.10;;;;;;5035241;28;20033;-84
2023/12/02 21:24:12;;;;;;;46.07;22.77;;;1.30;96.10;;;;;;5048864;28;20053;-84
2023/12/02 21:26:37;;;;;;;47.77;21.60;;;1.30;96.20;;;;;;5063145;28;20052;-84
2023/12/02 21:29:03;;;;;;;46.37;22.60;;;1.30;96.30;;;;;;5034965;28;20087;-84
2023/12/02 21:31:29;;;;;;;48.60;22.17;;;1.30;96.30;;;;;;5031762;28;20035;-84
2023/12/02 21:33:55;;;;;;;45.33;21.70;;;1.30;96.40;;;;;;5057318;28;20547;-84
2023/12/02 21:36:21;;;;;;;45.40;21.53;;;1.30;96.50;;;;;;5028880;28;20126;-84
2023/12/02 21:38:52;;;;;;;42.57;21.90;;;1.30;96.60;;;;;;5053936;28;20044;-84
2023/12/02 21:41:18;;;;;;;44.27;21.03;;;1.30;96.60;;;;;;5055178;28;20017;-84
2023/12/02 21:43:45;;;;;;;43.53;20.80;;;1.30;96.70;;;;;;5050887;28;20058;-84
2023/12/02 21:46:29;;;;;;;50.10;21.17;;;1.30;96.70;;;;;;5033431;28;20036;-85
2023/12/02 21:48:57;;;;;;;43.63;20.37;;;1.30;96.80;;;;;;5050911;28;20048;-84
2023/12/02 21:51:32;;;;;;;41.27;20.87;;;1.30;96.90;;;;;;5033597;28;20025;-85
2023/12/02 21:53:59;;;;;;;43.30;19.93;;;1.30;96.90;;;;;;5051335;28;20018;-85
2023/12/02 21:56:26;;;;;;;46.50;21.27;;;1.40;97.00;;;;;;5032873;28;20778;-84
2023/12/02 21:59:08;;;;;;;44.60;18.17;;;1.40;97.10;;;;;;5049856;28;20116;-84
2023/12/02 22:01:36;;;;;;;47.27;21.77;;;1.50;97.30;;;;;;5051356;28;20138;-84
2023/12/02 22:04:03;;;;;;;49.57;21.87;;;1.50;97.30;;;;;;5032928;28;20021;-84
2023/12/02 22:06:42;;;;;;;45.43;21.87;;;1.50;97.40;;;;;;5050993;28;20052;-84
2023/12/02 22:09:08;;;;;;;47.63;21.23;;;1.50;97.50;;;;;;5049814;28;20025;-84
2023/12/02 22:11:40;;;;;;;43.47;20.27;;;1.50;97.60;;;;;;5030083;28;20363;-84
2023/12/02 22:14:32;;;;;;;45.53;22.90;;;1.50;97.60;;;;;;5020027;28;20021;-84
2023/12/02 22:17:00;;;;;;;40.23;20.30;;;1.60;97.70;;;;;;5028586;28;20033;-84
2023/12/02 22:19:26;;;;;;;35.20;18.20;;;1.60;97.70;;;;;;5028863;28;20028;-84
2023/12/02 22:21:53;;;;;;;37.27;18.83;;;1.60;97.80;;;;;;5033955;28;20026;-84
2023/12/02 22:24:20;;;;;;;39.00;17.30;;;1.70;97.90;;;;;;5016862;28;20067;-84
2023/12/02 22:26:46;;;;;;;41.73;20.03;;;1.60;98.00;;;;;;5034308;28;20045;-84
2023/12/02 22:29:21;;;;;;;37.10;18.50;;;1.70;98.10;;;;;;5033155;28;20395;-84
2023/12/02 22:31:47;;;;;;;42.03;18.67;;;1.80;98.20;;;;;;5034059;28;20025;-84
2023/12/02 22:34:14;;;;;;;44.43;22.37;;;1.80;98.20;;;;;;5034546;28;20034;-84
2023/12/02 22:36:47;;;;;;;43.93;21.23;;;1.90;98.30;;;;;;5032926;28;20032;-84
2023/12/02 22:39:23;;;;;;;41.88;20.40;;;1.90;98.30;;;;;;5034231;28;20044;-84
2023/12/02 22:41:54;;;;;;;45.83;21.43;;;2.00;98.30;;;;;;5049971;28;20477;-84
2023/12/02 22:44:20;;;;;;;46.10;22.37;;;2.00;98.40;;;;;;5053925;28;20022;-84
2023/12/02 22:46:49;;;;;;;45.83;23.07;;;2.10;98.50;;;;;;5053849;28;20017;-84
2023/12/02 22:49:25;;;;;;;47.80;22.93;;;2.10;98.50;;;;;;5053927;28;20155;-83
2023/12/02 22:51:52;;;;;;;45.57;22.50;;;2.10;98.60;;;;;;5052762;28;20041;-84
2023/12/02 22:54:38;;;;;;;51.17;23.13;;;2.10;98.60;;;;;;5052254;28;20028;-84
2023/12/02 22:57:06;;;;;;;46.17;23.73;;;2.10;98.50;;;;;;5052683;28;20033;-83
2023/12/02 22:59:32;;;;;;;49.77;22.57;;;2.10;98.50;;;;;;5052586;28;20040;-83
2023/12/02 23:01:57;;;;;;;49.50;23.53;;;2.10;98.50;;;;;;5035745;28;20029;-83
2023/12/02 23:04:34;;;;;;;45.50;22.90;;;2.10;98.60;;;;;;5053758;28;20102;-83
2023/12/02 23:07:00;;;;;;;47.47;23.20;;;2.10;98.60;;;;;;5035867;28;20384;-83
2023/12/02 23:09:29;;;;;;;50.30;23.73;;;2.10;98.50;;;;;;5053262;28;20016;-83
2023/12/02 23:11:56;;;;;;;43.90;22.87;;;2.10;98.50;;;;;;5035554;28;20116;-84
2023/12/02 23:14:35;;;;;;;43.73;21.67;;;2.10;98.50;;;;;;5051965;28;20048;-83
2023/12/02 23:17:01;;;;;;;46.67;23.10;;;2.20;98.50;;;;;;5053175;28;20039;-84
2023/12/02 23:19:34;;;;;;;50.57;24.13;;;2.10;98.60;;;;;;5035594;28;20146;-82
2023/12/02 23:22:00;;;;;;;46.87;21.70;;;2.10;98.50;;;;;;5053146;28;20025;-83
2023/12/02 23:24:30;;;;;;;48.93;22.47;;;2.10;98.50;;;;;;5053309;28;20504;-83
2023/12/02 23:26:55;;;;;;;46.60;22.57;;;2.10;98.50;;;;;;5052666;28;20124;-82
2023/12/02 23:29:21;;;;;;;44.03;21.07;;;2.10;98.50;;;;;;5051511;28;20060;-82
2023/12/02 23:31:47;;;;;;;49.73;23.67;;;2.00;98.50;;;;;;5053444;28;20029;-82
2023/12/02 23:34:13;;;;;;;51.37;23.87;;;2.10;98.60;;;;;;5035090;28;20082;-83
2023/12/02 23:36:40;;;;;;;47.47;23.47;;;2.10;98.60;;;;;;5051487;28;20033;-82
2023/12/02 23:39:06;;;;;;;59.70;27.23;;;2.00;98.70;;;;;;5052985;28;20048;-82
2023/12/02 23:41:34;;;;;;;56.07;26.77;;;2.00;98.70;;;;;;5052693;28;20033;-82
2023/12/02 23:44:07;;;;;;;55.07;25.27;;;2.00;98.80;;;;;;5051465;28;20481;-82
2023/12/02 23:46:33;;;;;;;52.07;24.50;;;2.00;98.80;;;;;;5051876;28;20029;-82
2023/12/02 23:48:58;;;;;;;53.50;26.93;;;2.00;98.80;;;;;;5055280;28;20351;-81
2023/12/02 23:51:24;;;;;;;54.43;25.03;;;2.00;98.90;;;;;;5057156;28;20060;-82
2023/12/02 23:53:49;;;;;;;52.40;25.00;;;2.00;98.90;;;;;;5055690;28;20069;-81
2023/12/02 23:56:15;;;;;;;61.87;28.70;;;2.00;99.00;;;;;;5038641;28;20057;-82
2023/12/02 23:58:41;;;;;;;60.00;27.53;;;2.00;99.20;;;;;;5038689;28;20536;-81
